sensor_id;sensor_type;location;lat;lon;timestamp;temperature;humidity
17208;DHT22;8720;48.488;9.202;2022-10-31T00:01:22;14.10;52.20
17208;DHT22;8720;48.488;9.202;2022-10-31T00:03:51;14.10;52.30
17208;DHT22;8720;48.488;9.202;2022-10-31T00:06:18;14.10;52.20
17208;DHT22;8720;48.488;9.202;2022-10-31T00:08:46;14.00;52.90
17208;DHT22;8720;48.488;9.202;2022-10-31T00:11:15;14.00;52.30
17208;DHT22;8720;48.488;9.202;2022-10-31T00:13:42;14.00;52.40
17208;DHT22;8720;48.488;9.202;2022-10-31T00:16:16;14.00;52.30
17208;DHT22;8720;48.488;9.202;2022-10-31T00:18:48;14.00;52.70
17208;DHT22;8720;48.488;9.202;2022-10-31T00:21:16;13.90;52.60
17208;DHT22;8720;48.488;9.202;2022-10-31T00:23:43;13.90;52.60
17208;DHT22;8720;48.488;9.202;2022-10-31T00:26:10;13.90;52.60
17208;DHT22;8720;48.488;9.202;2022-10-31T00:28:39;13.90;52.70
17208;DHT22;8720;48.488;9.202;2022-10-31T00:31:09;13.90;52.90
17208;DHT22;8720;48.488;9.202;2022-10-31T00:33:39;13.80;53.00
17208;DHT22;8720;48.488;9.202;2022-10-31T00:36:11;13.80;53.10
17208;DHT22;8720;48.488;9.202;2022-10-31T00:38:40;13.80;53.30
17208;DHT22;8720;48.488;9.202;2022-10-31T00:41:07;13.70;53.30
17208;DHT22;8720;48.488;9.202;2022-10-31T00:43:35;13.70;53.40
17208;DHT22;8720;48.488;9.202;2022-10-31T00:46:04;13.70;53.50
17208;DHT22;8720;48.488;9.202;2022-10-31T00:48:31;13.60;53.60
17208;DHT22;8720;48.488;9.202;2022-10-31T00:50:58;13.60;53.60
17208;DHT22;8720;48.488;9.202;2022-10-31T00:53:26;13.60;53.70
17208;DHT22;8720;48.488;9.202;2022-10-31T00:55:54;13.50;53.70
17208;DHT22;8720;48.488;9.202;2022-10-31T00:58:22;13.50;53.80
17208;DHT22;8720;48.488;9.202;2022-10-31T01:00:50;13.50;54.00
17208;DHT22;8720;48.488;9.202;2022-10-31T01:03:22;13.40;54.10
17208;DHT22;8720;48.488;9.202;2022-10-31T01:05:58;13.40;54.40
17208;DHT22;8720;48.488;9.202;2022-10-31T01:08:26;13.40;54.70
17208;DHT22;8720;48.488;9.202;2022-10-31T01:10:59;13.30;54.30
17208;DHT22;8720;48.488;9.202;2022-10-31T01:13:28;13.30;54.70
17208;DHT22;8720;48.488;9.202;2022-10-31T01:15:56;13.30;54.60
17208;DHT22;8720;48.488;9.202;2022-10-31T01:18:26;13.20;54.60
17208;DHT22;8720;48.488;9.202;2022-10-31T01:20:59;13.20;54.80
17208;DHT22;8720;48.488;9.202;2022-10-31T01:23:27;13.20;55.10
17208;DHT22;8720;48.488;9.202;2022-10-31T01:26:06;13.20;54.90
17208;DHT22;8720;48.488;9.202;2022-10-31T01:28:37;13.10;55.30
17208;DHT22;8720;48.488;9.202;2022-10-31T01:31:08;13.10;55.00
17208;DHT22;8720;48.488;9.202;2022-10-31T01:33:37;13.10;55.30
17208;DHT22;8720;48.488;9.202;2022-10-31T01:36:13;13.00;55.30
17208;DHT22;8720;48.488;9.202;2022-10-31T01:38:42;13.10;55.80
17208;DHT22;8720;48.488;9.202;2022-10-31T01:41:10;13.00;55.20
17208;DHT22;8720;48.488;9.202;2022-10-31T01:43:44;13.00;55.40
17208;DHT22;8720;48.488;9.202;2022-10-31T01:46:13;13.00;56.30
17208;DHT22;8720;48.488;9.202;2022-10-31T01:48:45;12.90;55.50
17208;DHT22;8720;48.488;9.202;2022-10-31T01:51:15;12.90;55.70
17208;DHT22;8720;48.488;9.202;2022-10-31T01:53:48;12.90;55.70
17208;DHT22;8720;48.488;9.202;2022-10-31T01:56:18;12.90;55.70
17208;DHT22;8720;48.488;9.202;2022-10-31T01:58:46;12.80;55.60
17208;DHT22;8720;48.488;9.202;2022-10-31T02:01:16;12.80;55.80
17208;DHT22;8720;48.488;9.202;2022-10-31T02:03:46;12.80;55.90
17208;DHT22;8720;48.488;9.202;2022-10-31T02:06:21;12.80;56.00
17208;DHT22;8720;48.488;9.202;2022-10-31T02:08:58;12.80;56.20
17208;DHT22;8720;48.488;9.202;2022-10-31T02:11:28;12.70;56.10
17208;DHT22;8720;48.488;9.202;2022-10-31T02:13:56;12.70;56.10
17208;DHT22;8720;48.488;9.202;2022-10-31T02:16:25;12.70;56.00
17208;DHT22;8720;48.488;9.202;2022-10-31T02:18:54;12.70;56.10
17208;DHT22;8720;48.488;9.202;2022-10-31T02:21:26;12.70;56.50
17208;DHT22;8720;48.488;9.202;2022-10-31T02:24:22;12.60;56.50
17208;DHT22;8720;48.488;9.202;2022-10-31T02:27:26;12.60;56.80
17208;DHT22;8720;48.488;9.202;2022-10-31T02:30:14;12.60;56.80
17208;DHT22;8720;48.488;9.202;2022-10-31T02:32:56;12.60;56.50
17208;DHT22;8720;48.488;9.202;2022-10-31T02:35:40;12.60;56.90
17208;DHT22;8720;48.488;9.202;2022-10-31T02:38:22;12.60;56.80
17208;DHT22;8720;48.488;9.202;2022-10-31T02:41:03;12.60;56.60
17208;DHT22;8720;48.488;9.202;2022-10-31T02:43:48;12.50;56.50
17208;DHT22;8720;48.488;9.202;2022-10-31T02:46:25;12.50;56.70
17208;DHT22;8720;48.488;9.202;2022-10-31T02:49:05;12.50;56.90
17208;DHT22;8720;48.488;9.202;2022-10-31T02:51:39;12.50;57.40
17208;DHT22;8720;48.488;9.202;2022-10-31T02:54:17;12.50;57.10
17208;DHT22;8720;48.488;9.202;2022-10-31T02:56:51;12.50;57.70
17208;DHT22;8720;48.488;9.202;2022-10-31T02:59:22;12.60;57.40
17208;DHT22;8720;48.488;9.202;2022-10-31T03:04:59;12.60;57.30
17208;DHT22;8720;48.488;9.202;2022-10-31T03:07:45;12.60;58.00
17208;DHT22;8720;48.488;9.202;2022-10-31T03:10:24;12.60;57.60
17208;DHT22;8720;48.488;9.202;2022-10-31T03:13:06;12.60;57.80
17208;DHT22;8720;48.488;9.202;2022-10-31T03:15:40;12.60;57.80
17208;DHT22;8720;48.488;9.202;2022-10-31T03:18:14;12.60;57.80
17208;DHT22;8720;48.488;9.202;2022-10-31T03:20:50;12.60;57.90
17208;DHT22;8720;48.488;9.202;2022-10-31T03:23:24;12.60;58.00
17208;DHT22;8720;48.488;9.202;2022-10-31T03:25:54;12.60;57.80
17208;DHT22;8720;48.488;9.202;2022-10-31T03:28:29;12.60;57.90
17208;DHT22;8720;48.488;9.202;2022-10-31T03:31:05;12.60;57.90
17208;DHT22;8720;48.488;9.202;2022-10-31T03:33:38;12.60;57.80
17208;DHT22;8720;48.488;9.202;2022-10-31T03:36:11;12.60;57.90
17208;DHT22;8720;48.488;9.202;2022-10-31T03:38:43;12.60;57.90
17208;DHT22;8720;48.488;9.202;2022-10-31T03:41:19;12.60;57.70
17208;DHT22;8720;48.488;9.202;2022-10-31T03:43:54;12.60;57.80
17208;DHT22;8720;48.488;9.202;2022-10-31T03:46:24;12.50;57.60
17208;DHT22;8720;48.488;9.202;2022-10-31T03:48:55;12.50;57.40
17208;DHT22;8720;48.488;9.202;2022-10-31T03:51:29;12.50;57.30
17208;DHT22;8720;48.488;9.202;2022-10-31T03:54:09;12.50;58.10
17208;DHT22;8720;48.488;9.202;2022-10-31T03:56:49;12.50;57.50
17208;DHT22;8720;48.488;9.202;2022-10-31T03:59:24;12.40;57.50
17208;DHT22;8720;48.488;9.202;2022-10-31T04:01:59;12.40;57.40
17208;DHT22;8720;48.488;9.202;2022-10-31T04:04:31;12.40;57.50
17208;DHT22;8720;48.488;9.202;2022-10-31T04:07:02;12.40;57.40
17208;DHT22;8720;48.488;9.202;2022-10-31T04:09:37;12.30;57.40
17208;DHT22;8720;48.488;9.202;2022-10-31T04:12:08;12.30;57.40
17208;DHT22;8720;48.488;9.202;2022-10-31T04:15:10;12.30;57.30
17208;DHT22;8720;48.488;9.202;2022-10-31T04:17:42;12.30;57.20
17208;DHT22;8720;48.488;9.202;2022-10-31T04:20:15;12.20;57.30
17208;DHT22;8720;48.488;9.202;2022-10-31T04:22:44;12.20;57.30
17208;DHT22;8720;48.488;9.202;2022-10-31T04:25:12;12.20;57.20
17208;DHT22;8720;48.488;9.202;2022-10-31T04:27:39;12.20;57.20
17208;DHT22;8720;48.488;9.202;2022-10-31T04:30:08;12.10;57.10
17208;DHT22;8720;48.488;9.202;2022-10-31T04:32:39;12.10;57.10
17208;DHT22;8720;48.488;9.202;2022-10-31T04:35:07;12.00;57.00
17208;DHT22;8720;48.488;9.202;2022-10-31T04:37:34;12.00;57.80
17208;DHT22;8720;48.488;9.202;2022-10-31T04:40:05;12.00;57.20
17208;DHT22;8720;48.488;9.202;2022-10-31T04:42:51;11.90;57.50
17208;DHT22;8720;48.488;9.202;2022-10-31T04:45:18;11.90;57.40
17208;DHT22;8720;48.488;9.202;2022-10-31T04:47:47;11.80;57.30
17208;DHT22;8720;48.488;9.202;2022-10-31T04:50:15;11.80;57.50
17208;DHT22;8720;48.488;9.202;2022-10-31T04:52:44;11.80;57.70
17208;DHT22;8720;48.488;9.202;2022-10-31T04:55:17;11.80;57.80
17208;DHT22;8720;48.488;9.202;2022-10-31T04:58:03;11.80;57.90
17208;DHT22;8720;48.488;9.202;2022-10-31T05:00:32;11.70;57.80
17208;DHT22;8720;48.488;9.202;2022-10-31T05:02:59;11.70;58.00
17208;DHT22;8720;48.488;9.202;2022-10-31T05:05:31;11.70;58.20
17208;DHT22;8720;48.488;9.202;2022-10-31T05:08:02;11.70;58.50
17208;DHT22;8720;48.488;9.202;2022-10-31T05:10:32;11.70;58.40
17208;DHT22;8720;48.488;9.202;2022-10-31T05:13:02;11.70;58.60
17208;DHT22;8720;48.488;9.202;2022-10-31T05:15:42;11.70;58.60
17208;DHT22;8720;48.488;9.202;2022-10-31T05:18:09;11.60;58.40
17208;DHT22;8720;48.488;9.202;2022-10-31T05:20:52;11.60;58.50
17208;DHT22;8720;48.488;9.202;2022-10-31T05:23:39;11.60;58.50
17208;DHT22;8720;48.488;9.202;2022-10-31T05:26:09;11.60;58.50
17208;DHT22;8720;48.488;9.202;2022-10-31T05:28:36;11.60;58.60
17208;DHT22;8720;48.488;9.202;2022-10-31T05:31:04;11.60;58.50
17208;DHT22;8720;48.488;9.202;2022-10-31T05:33:31;11.60;58.60
17208;DHT22;8720;48.488;9.202;2022-10-31T05:36:17;11.60;58.60
17208;DHT22;8720;48.488;9.202;2022-10-31T05:38:57;11.60;58.60
17208;DHT22;8720;48.488;9.202;2022-10-31T05:41:31;11.60;58.60
17208;DHT22;8720;48.488;9.202;2022-10-31T05:44:04;11.60;58.80
17208;DHT22;8720;48.488;9.202;2022-10-31T05:46:39;11.50;58.60
17208;DHT22;8720;48.488;9.202;2022-10-31T05:49:08;11.50;58.50
17208;DHT22;8720;48.488;9.202;2022-10-31T05:52:11;11.50;58.50
17208;DHT22;8720;48.488;9.202;2022-10-31T05:54:47;11.50;58.50
17208;DHT22;8720;48.488;9.202;2022-10-31T05:57:16;11.40;58.50
17208;DHT22;8720;48.488;9.202;2022-10-31T05:59:43;11.50;58.70
17208;DHT22;8720;48.488;9.202;2022-10-31T06:02:10;11.40;58.60
17208;DHT22;8720;48.488;9.202;2022-10-31T06:05:10;11.40;58.70
17208;DHT22;8720;48.488;9.202;2022-10-31T06:07:38;11.40;58.70
17208;DHT22;8720;48.488;9.202;2022-10-31T06:10:06;11.40;58.80
17208;DHT22;8720;48.488;9.202;2022-10-31T06:12:36;11.40;58.90
17208;DHT22;8720;48.488;9.202;2022-10-31T06:15:22;11.40;59.00
17208;DHT22;8720;48.488;9.202;2022-10-31T06:17:58;11.40;58.80
17208;DHT22;8720;48.488;9.202;2022-10-31T06:20:27;11.30;59.00
17208;DHT22;8720;48.488;9.202;2022-10-31T06:22:59;11.30;58.70
17208;DHT22;8720;48.488;9.202;2022-10-31T06:25:27;11.30;58.80
17208;DHT22;8720;48.488;9.202;2022-10-31T06:27:56;11.30;58.80
17208;DHT22;8720;48.488;9.202;2022-10-31T06:30:29;11.30;59.00
17208;DHT22;8720;48.488;9.202;2022-10-31T06:33:02;11.30;58.80
17208;DHT22;8720;48.488;9.202;2022-10-31T06:35:30;11.30;59.20
17208;DHT22;8720;48.488;9.202;2022-10-31T06:37:59;11.30;59.00
17208;DHT22;8720;48.488;9.202;2022-10-31T06:40:46;11.30;59.00
17208;DHT22;8720;48.488;9.202;2022-10-31T06:43:23;11.30;59.00
17208;DHT22;8720;48.488;9.202;2022-10-31T06:46:03;11.30;59.30
17208;DHT22;8720;48.488;9.202;2022-10-31T06:48:39;11.30;59.30
17208;DHT22;8720;48.488;9.202;2022-10-31T06:51:16;11.30;59.40
17208;DHT22;8720;48.488;9.202;2022-10-31T06:53:44;11.40;59.60
17208;DHT22;8720;48.488;9.202;2022-10-31T06:56:12;11.40;59.70
17208;DHT22;8720;48.488;9.202;2022-10-31T06:58:46;11.40;59.80
17208;DHT22;8720;48.488;9.202;2022-10-31T07:01:15;11.50;60.10
17208;DHT22;8720;48.488;9.202;2022-10-31T07:03:45;11.50;60.00
17208;DHT22;8720;48.488;9.202;2022-10-31T07:06:12;11.50;60.50
17208;DHT22;8720;48.488;9.202;2022-10-31T07:08:40;11.60;60.50
17208;DHT22;8720;48.488;9.202;2022-10-31T07:11:07;11.60;60.60
17208;DHT22;8720;48.488;9.202;2022-10-31T07:13:35;11.70;60.70
17208;DHT22;8720;48.488;9.202;2022-10-31T07:16:07;11.70;60.80
17208;DHT22;8720;48.488;9.202;2022-10-31T07:18:37;11.80;61.20
17208;DHT22;8720;48.488;9.202;2022-10-31T07:21:05;11.90;61.20
17208;DHT22;8720;48.488;9.202;2022-10-31T07:23:32;12.00;61.50
17208;DHT22;8720;48.488;9.202;2022-10-31T07:26:18;12.10;61.50
17208;DHT22;8720;48.488;9.202;2022-10-31T07:28:47;12.20;61.40
17208;DHT22;8720;48.488;9.202;2022-10-31T07:31:18;12.30;61.30
17208;DHT22;8720;48.488;9.202;2022-10-31T07:33:46;12.40;61.30
17208;DHT22;8720;48.488;9.202;2022-10-31T07:36:25;12.40;60.90
17208;DHT22;8720;48.488;9.202;2022-10-31T07:38:56;12.50;60.70
17208;DHT22;8720;48.488;9.202;2022-10-31T07:41:25;12.60;60.50
17208;DHT22;8720;48.488;9.202;2022-10-31T07:43:53;12.60;60.20
17208;DHT22;8720;48.488;9.202;2022-10-31T07:46:42;12.70;59.90
17208;DHT22;8720;48.488;9.202;2022-10-31T07:49:38;12.70;59.60
17208;DHT22;8720;48.488;9.202;2022-10-31T07:52:38;12.80;59.50
17208;DHT22;8720;48.488;9.202;2022-10-31T07:55:42;12.80;59.50
17208;DHT22;8720;48.488;9.202;2022-10-31T07:58:13;12.90;59.70
17208;DHT22;8720;48.488;9.202;2022-10-31T08:00:43;12.90;59.80
17208;DHT22;8720;48.488;9.202;2022-10-31T08:03:17;13.00;60.00
17208;DHT22;8720;48.488;9.202;2022-10-31T08:06:04;13.00;60.00
17208;DHT22;8720;48.488;9.202;2022-10-31T08:08:50;13.10;60.10
17208;DHT22;8720;48.488;9.202;2022-10-31T08:11:18;13.20;60.20
17208;DHT22;8720;48.488;9.202;2022-10-31T08:13:47;13.30;60.20
17208;DHT22;8720;48.488;9.202;2022-10-31T08:16:15;13.40;60.20
17208;DHT22;8720;48.488;9.202;2022-10-31T08:18:52;13.50;60.30
17208;DHT22;8720;48.488;9.202;2022-10-31T08:21:21;13.60;60.30
17208;DHT22;8720;48.488;9.202;2022-10-31T08:23:49;13.70;60.20
17208;DHT22;8720;48.488;9.202;2022-10-31T08:26:19;13.80;60.20
17208;DHT22;8720;48.488;9.202;2022-10-31T08:28:48;13.90;60.20
17208;DHT22;8720;48.488;9.202;2022-10-31T08:31:16;14.10;60.10
17208;DHT22;8720;48.488;9.202;2022-10-31T08:33:43;14.20;60.00
17208;DHT22;8720;48.488;9.202;2022-10-31T08:36:30;14.30;59.90
17208;DHT22;8720;48.488;9.202;2022-10-31T08:39:08;14.40;59.70
17208;DHT22;8720;48.488;9.202;2022-10-31T08:41:35;14.50;59.50
17208;DHT22;8720;48.488;9.202;2022-10-31T08:44:06;14.50;59.30
17208;DHT22;8720;48.488;9.202;2022-10-31T08:46:34;14.60;59.30
17208;DHT22;8720;48.488;9.202;2022-10-31T08:49:01;14.70;59.20
17208;DHT22;8720;48.488;9.202;2022-10-31T08:51:30;14.70;59.00
17208;DHT22;8720;48.488;9.202;2022-10-31T08:53:58;14.80;58.90
17208;DHT22;8720;48.488;9.202;2022-10-31T08:56:54;14.90;58.80
17208;DHT22;8720;48.488;9.202;2022-10-31T08:59:50;15.00;58.60
17208;DHT22;8720;48.488;9.202;2022-10-31T09:02:24;15.10;58.60
17208;DHT22;8720;48.488;9.202;2022-10-31T09:04:57;15.10;58.50
17208;DHT22;8720;48.488;9.202;2022-10-31T09:07:26;15.20;58.30
17208;DHT22;8720;48.488;9.202;2022-10-31T09:09:53;15.30;58.10
17208;DHT22;8720;48.488;9.202;2022-10-31T09:12:22;15.40;58.10
17208;DHT22;8720;48.488;9.202;2022-10-31T09:15:09;15.40;57.90
17208;DHT22;8720;48.488;9.202;2022-10-31T09:17:46;15.50;57.80
17208;DHT22;8720;48.488;9.202;2022-10-31T09:20:27;15.60;57.60
17208;DHT22;8720;48.488;9.202;2022-10-31T09:23:00;15.60;57.50
17208;DHT22;8720;48.488;9.202;2022-10-31T09:25:29;15.70;57.30
17208;DHT22;8720;48.488;9.202;2022-10-31T09:28:18;15.80;57.60
17208;DHT22;8720;48.488;9.202;2022-10-31T09:30:47;15.90;57.50
17208;DHT22;8720;48.488;9.202;2022-10-31T09:33:25;15.90;57.60
17208;DHT22;8720;48.488;9.202;2022-10-31T09:36:12;16.10;57.70
17208;DHT22;8720;48.488;9.202;2022-10-31T09:38:42;16.20;57.50
17208;DHT22;8720;48.488;9.202;2022-10-31T09:41:19;16.30;57.40
17208;DHT22;8720;48.488;9.202;2022-10-31T09:44:07;16.40;57.20
17208;DHT22;8720;48.488;9.202;2022-10-31T09:46:54;16.50;57.10
17208;DHT22;8720;48.488;9.202;2022-10-31T09:49:52;16.70;57.00
17208;DHT22;8720;48.488;9.202;2022-10-31T09:52:30;16.80;56.60
17208;DHT22;8720;48.488;9.202;2022-10-31T09:55:12;17.00;56.70
17208;DHT22;8720;48.488;9.202;2022-10-31T09:57:43;17.10;56.60
17208;DHT22;8720;48.488;9.202;2022-10-31T10:00:16;17.20;56.80
17208;DHT22;8720;48.488;9.202;2022-10-31T10:02:48;17.30;56.30
17208;DHT22;8720;48.488;9.202;2022-10-31T10:05:21;17.40;56.40
17208;DHT22;8720;48.488;9.202;2022-10-31T10:08:01;17.50;56.10
17208;DHT22;8720;48.488;9.202;2022-10-31T10:11:32;17.60;55.90
17208;DHT22;8720;48.488;9.202;2022-10-31T10:14:33;17.80;55.50
17208;DHT22;8720;48.488;9.202;2022-10-31T10:17:16;18.00;55.30
17208;DHT22;8720;48.488;9.202;2022-10-31T10:20:18;18.00;55.20
17208;DHT22;8720;48.488;9.202;2022-10-31T10:22:58;18.10;54.90
17208;DHT22;8720;48.488;9.202;2022-10-31T10:25:39;18.20;55.10
17208;DHT22;8720;48.488;9.202;2022-10-31T10:28:19;18.30;55.10
17208;DHT22;8720;48.488;9.202;2022-10-31T10:30:54;18.40;54.50
17208;DHT22;8720;48.488;9.202;2022-10-31T10:33:30;18.40;54.70
17208;DHT22;8720;48.488;9.202;2022-10-31T10:36:03;18.50;54.50
17208;DHT22;8720;48.488;9.202;2022-10-31T10:38:38;18.50;54.50
17208;DHT22;8720;48.488;9.202;2022-10-31T10:41:17;18.60;54.20
17208;DHT22;8720;48.488;9.202;2022-10-31T10:43:49;18.60;54.30
17208;DHT22;8720;48.488;9.202;2022-10-31T10:46:19;18.70;54.20
17208;DHT22;8720;48.488;9.202;2022-10-31T10:49:15;18.80;54.40
17208;DHT22;8720;48.488;9.202;2022-10-31T10:51:46;18.80;53.80
17208;DHT22;8720;48.488;9.202;2022-10-31T10:54:39;18.90;53.90
17208;DHT22;8720;48.488;9.202;2022-10-31T11:00:25;19.10;53.40
17208;DHT22;8720;48.488;9.202;2022-10-31T11:02:59;19.20;53.50
17208;DHT22;8720;48.488;9.202;2022-10-31T11:05:33;19.30;54.20
17208;DHT22;8720;48.488;9.202;2022-10-31T11:08:03;19.40;53.20
17208;DHT22;8720;48.488;9.202;2022-10-31T11:10:31;19.50;53.30
17208;DHT22;8720;48.488;9.202;2022-10-31T11:13:20;19.60;53.20
17208;DHT22;8720;48.488;9.202;2022-10-31T11:15:57;19.70;52.40
17208;DHT22;8720;48.488;9.202;2022-10-31T11:18:29;19.70;52.40
17208;DHT22;8720;48.488;9.202;2022-10-31T11:20:59;19.80;52.60
17208;DHT22;8720;48.488;9.202;2022-10-31T11:23:28;19.90;52.50
17208;DHT22;8720;48.488;9.202;2022-10-31T11:26:00;19.90;52.30
17208;DHT22;8720;48.488;9.202;2022-10-31T11:28:31;20.00;52.90
17208;DHT22;8720;48.488;9.202;2022-10-31T11:31:07;20.00;52.10
17208;DHT22;8720;48.488;9.202;2022-10-31T11:33:39;20.10;51.80
17208;DHT22;8720;48.488;9.202;2022-10-31T11:36:18;20.10;51.80
17208;DHT22;8720;48.488;9.202;2022-10-31T11:38:50;20.20;51.60
17208;DHT22;8720;48.488;9.202;2022-10-31T11:41:24;20.30;51.80
17208;DHT22;8720;48.488;9.202;2022-10-31T11:43:55;20.30;51.20
17208;DHT22;8720;48.488;9.202;2022-10-31T11:46:32;20.40;51.70
17208;DHT22;8720;48.488;9.202;2022-10-31T11:49:02;20.40;51.20
17208;DHT22;8720;48.488;9.202;2022-10-31T11:51:33;20.50;51.40
17208;DHT22;8720;48.488;9.202;2022-10-31T11:54:03;20.50;51.10
17208;DHT22;8720;48.488;9.202;2022-10-31T11:56:38;20.60;51.00
17208;DHT22;8720;48.488;9.202;2022-10-31T11:59:18;20.60;50.40
17208;DHT22;8720;48.488;9.202;2022-10-31T12:01:52;20.70;50.70
17208;DHT22;8720;48.488;9.202;2022-10-31T12:04:37;20.70;50.90
17208;DHT22;8720;48.488;9.202;2022-10-31T12:07:08;20.80;50.80
17208;DHT22;8720;48.488;9.202;2022-10-31T12:09:36;20.80;50.90
17208;DHT22;8720;48.488;9.202;2022-10-31T12:12:15;20.90;51.30
17208;DHT22;8720;48.488;9.202;2022-10-31T12:15:29;20.90;50.50
17208;DHT22;8720;48.488;9.202;2022-10-31T12:21:14;20.90;50.40
17208;DHT22;8720;48.488;9.202;2022-10-31T12:24:00;20.90;50.60
17208;DHT22;8720;48.488;9.202;2022-10-31T12:26:41;20.90;50.60
17208;DHT22;8720;48.488;9.202;2022-10-31T12:29:31;21.00;50.80
17208;DHT22;8720;48.488;9.202;2022-10-31T12:32:27;21.00;51.00
17208;DHT22;8720;48.488;9.202;2022-10-31T12:38:24;21.00;50.70
17208;DHT22;8720;48.488;9.202;2022-10-31T12:41:17;21.00;50.70
17208;DHT22;8720;48.488;9.202;2022-10-31T12:43:59;21.00;50.50
17208;DHT22;8720;48.488;9.202;2022-10-31T12:46:54;21.00;50.60
17208;DHT22;8720;48.488;9.202;2022-10-31T12:49:42;21.00;50.40
17208;DHT22;8720;48.488;9.202;2022-10-31T12:52:40;21.00;50.30
17208;DHT22;8720;48.488;9.202;2022-10-31T12:55:31;21.00;50.50
17208;DHT22;8720;48.488;9.202;2022-10-31T12:58:09;21.00;50.90
17208;DHT22;8720;48.488;9.202;2022-10-31T13:00:44;21.00;50.60
17208;DHT22;8720;48.488;9.202;2022-10-31T13:03:24;21.00;50.60
17208;DHT22;8720;48.488;9.202;2022-10-31T13:05:58;21.00;50.30
17208;DHT22;8720;48.488;9.202;2022-10-31T13:08:35;21.00;50.30
17208;DHT22;8720;48.488;9.202;2022-10-31T13:11:10;21.00;50.10
17208;DHT22;8720;48.488;9.202;2022-10-31T13:13:44;21.00;50.30
17208;DHT22;8720;48.488;9.202;2022-10-31T13:16:20;21.00;50.20
17208;DHT22;8720;48.488;9.202;2022-10-31T13:18:55;21.00;50.20
17208;DHT22;8720;48.488;9.202;2022-10-31T13:21:36;21.00;50.40
17208;DHT22;8720;48.488;9.202;2022-10-31T13:24:12;21.10;50.70
17208;DHT22;8720;48.488;9.202;2022-10-31T13:26:47;21.10;50.80
17208;DHT22;8720;48.488;9.202;2022-10-31T13:29:22;21.10;50.50
17208;DHT22;8720;48.488;9.202;2022-10-31T13:31:55;21.10;50.70
17208;DHT22;8720;48.488;9.202;2022-10-31T13:34:26;21.10;50.70
17208;DHT22;8720;48.488;9.202;2022-10-31T13:37:05;21.10;50.60
17208;DHT22;8720;48.488;9.202;2022-10-31T13:40:05;21.10;50.20
17208;DHT22;8720;48.488;9.202;2022-10-31T13:42:57;21.10;50.30
17208;DHT22;8720;48.488;9.202;2022-10-31T13:45:33;21.20;50.30
17208;DHT22;8720;48.488;9.202;2022-10-31T13:48:17;21.20;50.50
17208;DHT22;8720;48.488;9.202;2022-10-31T13:50:57;21.20;50.30
17208;DHT22;8720;48.488;9.202;2022-10-31T13:53:36;21.20;50.10
17208;DHT22;8720;48.488;9.202;2022-10-31T13:56:18;21.20;50.00
17208;DHT22;8720;48.488;9.202;2022-10-31T13:59:18;21.30;49.90
17208;DHT22;8720;48.488;9.202;2022-10-31T14:01:53;21.20;49.80
17208;DHT22;8720;48.488;9.202;2022-10-31T14:04:25;21.20;50.00
17208;DHT22;8720;48.488;9.202;2022-10-31T14:06:58;21.20;49.90
17208;DHT22;8720;48.488;9.202;2022-10-31T14:09:35;21.20;49.90
17208;DHT22;8720;48.488;9.202;2022-10-31T14:12:08;21.30;50.10
17208;DHT22;8720;48.488;9.202;2022-10-31T14:14:48;21.30;50.00
17208;DHT22;8720;48.488;9.202;2022-10-31T14:17:21;21.30;49.60
17208;DHT22;8720;48.488;9.202;2022-10-31T14:26:18;21.30;49.50
17208;DHT22;8720;48.488;9.202;2022-10-31T14:28:48;21.30;49.50
17208;DHT22;8720;48.488;9.202;2022-10-31T14:31:34;21.30;49.70
17208;DHT22;8720;48.488;9.202;2022-10-31T14:34:20;21.20;49.50
17208;DHT22;8720;48.488;9.202;2022-10-31T14:37:11;21.20;49.50
17208;DHT22;8720;48.488;9.202;2022-10-31T14:40:00;21.20;49.50
17208;DHT22;8720;48.488;9.202;2022-10-31T14:45:52;21.10;49.80
17208;DHT22;8720;48.488;9.202;2022-10-31T14:48:44;21.00;49.80
17208;DHT22;8720;48.488;9.202;2022-10-31T14:51:27;20.90;49.50
17208;DHT22;8720;48.488;9.202;2022-10-31T14:54:00;20.90;49.50
17208;DHT22;8720;48.488;9.202;2022-10-31T14:56:32;20.80;49.60
17208;DHT22;8720;48.488;9.202;2022-10-31T14:59:04;20.80;49.80
17208;DHT22;8720;48.488;9.202;2022-10-31T15:01:38;20.70;50.00
17208;DHT22;8720;48.488;9.202;2022-10-31T15:04:13;20.70;50.10
17208;DHT22;8720;48.488;9.202;2022-10-31T15:06:45;20.60;50.10
17208;DHT22;8720;48.488;9.202;2022-10-31T15:09:24;20.50;50.10
17208;DHT22;8720;48.488;9.202;2022-10-31T15:11:58;20.50;50.10
17208;DHT22;8720;48.488;9.202;2022-10-31T15:14:28;20.40;50.10
17208;DHT22;8720;48.488;9.202;2022-10-31T15:16:58;20.30;50.00
17208;DHT22;8720;48.488;9.202;2022-10-31T15:19:30;20.30;50.10
17208;DHT22;8720;48.488;9.202;2022-10-31T15:22:02;20.20;50.10
17208;DHT22;8720;48.488;9.202;2022-10-31T15:24:33;20.10;50.10
17208;DHT22;8720;48.488;9.202;2022-10-31T15:27:02;20.10;50.50
17208;DHT22;8720;48.488;9.202;2022-10-31T15:29:31;20.00;50.50
17208;DHT22;8720;48.488;9.202;2022-10-31T15:32:01;19.90;50.30
17208;DHT22;8720;48.488;9.202;2022-10-31T15:34:45;19.90;50.50
17208;DHT22;8720;48.488;9.202;2022-10-31T15:37:15;19.70;50.40
17208;DHT22;8720;48.488;9.202;2022-10-31T15:39:44;19.70;50.40
17208;DHT22;8720;48.488;9.202;2022-10-31T15:42:21;19.60;50.40
17208;DHT22;8720;48.488;9.202;2022-10-31T15:44:53;19.50;50.60
17208;DHT22;8720;48.488;9.202;2022-10-31T15:47:25;19.40;50.80
17208;DHT22;8720;48.488;9.202;2022-10-31T15:49:58;19.40;51.00
17208;DHT22;8720;48.488;9.202;2022-10-31T15:52:29;19.30;51.20
17208;DHT22;8720;48.488;9.202;2022-10-31T15:55:03;19.20;51.50
17208;DHT22;8720;48.488;9.202;2022-10-31T15:57:32;19.20;51.80
17208;DHT22;8720;48.488;9.202;2022-10-31T16:00:00;19.10;51.90
17208;DHT22;8720;48.488;9.202;2022-10-31T16:02:28;19.00;52.20
17208;DHT22;8720;48.488;9.202;2022-10-31T16:04:58;18.90;52.40
17208;DHT22;8720;48.488;9.202;2022-10-31T16:07:28;18.80;52.70
17208;DHT22;8720;48.488;9.202;2022-10-31T16:09:58;18.70;52.80
17208;DHT22;8720;48.488;9.202;2022-10-31T16:12:31;18.70;53.00
17208;DHT22;8720;48.488;9.202;2022-10-31T16:15:03;18.60;53.30
17208;DHT22;8720;48.488;9.202;2022-10-31T16:17:33;18.50;53.10
17208;DHT22;8720;48.488;9.202;2022-10-31T16:20:04;18.50;53.10
17208;DHT22;8720;48.488;9.202;2022-10-31T16:22:36;18.40;53.40
17208;DHT22;8720;48.488;9.202;2022-10-31T16:25:10;18.40;53.50
17208;DHT22;8720;48.488;9.202;2022-10-31T16:27:46;18.30;53.70
17208;DHT22;8720;48.488;9.202;2022-10-31T16:30:36;18.30;53.60
17208;DHT22;8720;48.488;9.202;2022-10-31T16:33:05;18.20;54.30
17208;DHT22;8720;48.488;9.202;2022-10-31T16:35:49;18.20;53.70
17208;DHT22;8720;48.488;9.202;2022-10-31T16:38:16;18.10;53.90
17208;DHT22;8720;48.488;9.202;2022-10-31T16:40:44;18.00;53.90
17208;DHT22;8720;48.488;9.202;2022-10-31T16:43:14;18.00;54.00
17208;DHT22;8720;48.488;9.202;2022-10-31T16:45:44;17.90;54.00
17208;DHT22;8720;48.488;9.202;2022-10-31T16:48:14;17.90;54.20
17208;DHT22;8720;48.488;9.202;2022-10-31T16:50:45;17.90;54.20
17208;DHT22;8720;48.488;9.202;2022-10-31T16:53:14;17.80;54.20
17208;DHT22;8720;48.488;9.202;2022-10-31T16:55:46;17.70;54.40
17208;DHT22;8720;48.488;9.202;2022-10-31T16:58:21;17.70;54.50